Time;durP1;ratioP1;P1;durP2;ratioP2;P2;SDS_P1;SDS_P2;PMS_P1;PMS_P2;Temp;Humidity;BMP_temperature;BMP_pressure;BME280_temperature;BME280_humidity;BME280_pressure;Samples;Min_cycle;Max_cycle;Signal;HPM_P1;HPM_P2
2021/01/28 00:00:11;;;;;;;24.80;13.20;;;8.90;99.90;;;;;;4964236;28;20213;-91
2021/01/28 00:02:37;;;;;;;24.07;12.63;;;8.90;99.90;;;;;;4973076;28;20199;-91
2021/01/28 00:05:04;;;;;;;25.47;12.90;;;8.80;99.90;;;;;;4959166;28;20187;-92
2021/01/28 00:07:30;;;;;;;25.57;13.53;;;8.90;99.90;;;;;;4965180;28;20175;-92
2021/01/28 00:09:56;;;;;;;24.20;12.80;;;8.90;99.90;;;;;;4986839;28;20251;-92
2021/01/28 00:12:21;;;;;;;27.33;14.00;;;9.00;99.90;;;;;;4946174;28;20675;-92
2021/01/28 00:14:47;;;;;;;24.90;12.03;;;8.90;99.90;;;;;;4962829;28;20214;-92
2021/01/28 00:17:13;;;;;;;24.57;12.47;;;8.90;99.90;;;;;;4961541;28;20192;-92
2021/01/28 00:19:38;;;;;;;23.10;12.50;;;8.90;99.90;;;;;;4946706;28;20234;-92
2021/01/28 00:22:04;;;;;;;24.37;12.17;;;8.90;99.90;;;;;;4976117;28;20194;-93
2021/01/28 00:24:30;;;;;;;22.47;12.40;;;9.00;99.90;;;;;;4963685;28;20651;-92
2021/01/28 00:26:55;;;;;;;24.10;12.37;;;9.00;99.90;;;;;;4961471;28;20178;-92
2021/01/28 00:29:21;;;;;;;23.57;11.80;;;9.00;99.90;;;;;;4964461;28;20207;-92
2021/01/28 00:31:47;;;;;;;20.67;11.37;;;9.00;99.90;;;;;;4999326;28;20197;-92
2021/01/28 00:34:12;;;;;;;20.67;11.77;;;8.80;99.90;;;;;;4958984;28;20190;-93
2021/01/28 00:36:38;;;;;;;21.80;12.13;;;8.80;99.90;;;;;;4979314;28;20186;-92
2021/01/28 00:39:05;;;;;;;20.20;11.17;;;8.70;99.90;;;;;;4978884;28;20232;-93
2021/01/28 00:41:31;;;;;;;22.17;11.83;;;8.80;99.90;;;;;;4995966;28;20171;-92
2021/01/28 00:43:56;;;;;;;21.83;12.13;;;8.70;99.90;;;;;;4966585;28;20707;-92
2021/01/28 00:46:22;;;;;;;18.53;10.63;;;8.70;99.90;;;;;;4995071;28;20185;-92
2021/01/28 00:48:49;;;;;;;20.27;11.40;;;8.60;99.90;;;;;;4977920;28;20664;-92
2021/01/28 00:51:15;;;;;;;19.50;11.00;;;8.60;99.90;;;;;;4963496;28;20318;-92
2021/01/28 00:53:40;;;;;;;17.80;10.40;;;8.60;99.90;;;;;;5006865;28;20696;-93
2021/01/28 00:56:06;;;;;;;19.73;10.73;;;8.60;99.90;;;;;;4963970;28;20190;-93
2021/01/28 00:58:41;;;;;;;18.63;10.80;;;8.70;99.90;;;;;;4978692;28;20210;-93
2021/01/28 01:01:07;;;;;;;18.87;10.23;;;8.90;99.90;;;;;;4962473;28;20261;-92
2021/01/28 01:03:32;;;;;;;19.07;10.57;;;8.80;99.90;;;;;;4980401;28;20221;-93
2021/01/28 01:05:58;;;;;;;15.90;9.43;;;8.70;99.90;;;;;;4977058;28;20210;-93
2021/01/28 01:08:25;;;;;;;19.10;10.87;;;8.70;99.90;;;;;;4992889;28;20550;-93
2021/01/28 01:10:55;;;;;;;18.40;10.40;;;8.70;99.90;;;;;;4996367;28;20188;-93
2021/01/28 01:13:24;;;;;;;18.27;10.50;;;8.80;99.90;;;;;;4979266;28;20183;-92
2021/01/28 01:15:56;;;;;;;17.83;10.63;;;8.70;99.90;;;;;;4963833;28;20190;-93
2021/01/28 01:18:28;;;;;;;17.23;10.10;;;8.80;99.90;;;;;;4994131;28;20304;-93
2021/01/28 01:20:55;;;;;;;18.97;10.53;;;8.70;99.90;;;;;;4959838;28;20187;-93
2021/01/28 01:23:25;;;;;;;18.73;10.33;;;8.70;99.90;;;;;;4965258;28;20225;-93
2021/01/28 01:26:03;;;;;;;17.27;10.00;;;8.60;99.90;;;;;;4963492;28;20655;-93
2021/01/28 01:28:29;;;;;;;18.10;10.07;;;8.50;99.90;;;;;;4994221;28;20243;-92
2021/01/28 01:30:58;;;;;;;19.53;10.43;;;8.50;99.90;;;;;;4978181;28;20552;-92
2021/01/28 01:33:25;;;;;;;19.70;10.57;;;8.60;99.90;;;;;;4962554;28;20171;-92
2021/01/28 01:36:06;;;;;;;20.87;11.30;;;8.60;99.90;;;;;;4991407;28;20179;-93
2021/01/28 01:38:36;;;;;;;20.47;10.73;;;8.60;99.90;;;;;;5009203;28;20206;-92
2021/01/28 01:41:02;;;;;;;21.53;12.50;;;8.60;99.90;;;;;;4963116;28;20186;-93
2021/01/28 01:43:28;;;;;;;23.40;12.37;;;8.60;99.90;;;;;;4961861;28;20614;-93
2021/01/28 01:46:06;;;;;;;22.43;12.07;;;8.60;99.90;;;;;;4979978;28;20182;-93
2021/01/28 01:48:49;;;;;;;20.87;12.23;;;8.60;99.90;;;;;;5006117;28;20209;-92
2021/01/28 01:51:24;;;;;;;21.57;12.57;;;8.70;99.90;;;;;;4970273;28;20252;-93
2021/01/28 01:53:59;;;;;;;23.97;13.87;;;8.60;99.90;;;;;;4986712;28;20181;-93
2021/01/28 01:56:31;;;;;;;20.70;13.17;;;8.60;99.90;;;;;;4962288;28;20192;-92
2021/01/28 01:59:15;;;;;;;22.77;13.13;;;8.60;99.90;;;;;;4979975;28;20265;-92
2021/01/28 02:02:08;;;;;;;22.20;13.23;;;8.60;99.90;;;;;;4984661;28;20177;-94
2021/01/28 02:05:02;;;;;;;22.43;13.57;;;8.60;99.90;;;;;;4994191;28;20603;-92
2021/01/28 02:07:58;;;;;;;24.70;13.63;;;8.70;99.90;;;;;;4982975;28;20194;-94
2021/01/28 02:10:41;;;;;;;25.90;14.73;;;8.80;99.90;;;;;;4994213;28;20202;-93
2021/01/28 02:13:25;;;;;;;29.47;15.13;;;8.90;99.90;;;;;;4979988;28;20206;-94
2021/01/28 02:16:08;;;;;;;26.57;15.07;;;8.80;99.90;;;;;;4977559;28;20193;-93
2021/01/28 02:18:44;;;;;;;23.83;14.80;;;8.80;99.90;;;;;;4977341;28;20851;-93
2021/01/28 02:21:33;;;;;;;27.67;15.73;;;8.70;99.90;;;;;;5005967;28;20189;-93
2021/01/28 02:24:34;;;;;;;29.97;16.77;;;8.70;99.90;;;;;;4991622;28;20217;-94
2021/01/28 02:27:04;;;;;;;30.67;17.57;;;8.70;99.90;;;;;;4977133;28;20210;-93
2021/01/28 02:29:50;;;;;;;30.07;17.83;;;8.60;99.90;;;;;;4989874;28;20205;-92
2021/01/28 02:32:16;;;;;;;31.97;18.57;;;8.60;99.90;;;;;;4976682;28;20529;-91
2021/01/28 02:34:49;;;;;;;30.83;17.10;;;8.70;99.90;;;;;;5004889;28;20224;-93
2021/01/28 02:37:20;;;;;;;30.67;16.87;;;8.60;99.90;;;;;;4991079;28;20186;-93
2021/01/28 02:39:45;;;;;;;27.03;16.03;;;8.60;99.90;;;;;;4994662;28;20293;-92
2021/01/28 02:42:31;;;;;;;23.33;14.47;;;8.50;99.90;;;;;;4978210;28;20273;-93
2021/01/28 02:45:09;;;;;;;26.60;15.30;;;8.70;99.90;;;;;;4958799;28;20186;-93
2021/01/28 02:48:07;;;;;;;22.97;14.10;;;8.70;99.90;;;;;;4985786;28;20204;-92
2021/01/28 02:50:40;;;;;;;24.87;13.83;;;8.80;99.90;;;;;;4992199;28;20205;-92
2021/01/28 02:53:07;;;;;;;23.17;13.47;;;8.80;99.90;;;;;;5001336;28;20179;-94
2021/01/28 02:55:36;;;;;;;23.57;13.03;;;8.80;99.90;;;;;;4980532;28;20232;-94
2021/01/28 02:58:03;;;;;;;20.20;12.77;;;8.80;99.90;;;;;;4974908;28;20174;-93
2021/01/28 03:00:40;;;;;;;21.50;12.60;;;8.60;99.90;;;;;;4974646;28;20742;-91
2021/01/28 03:03:10;;;;;;;20.77;11.80;;;8.70;99.90;;;;;;4958952;28;20487;-92
2021/01/28 03:05:44;;;;;;;22.00;11.93;;;8.80;99.90;;;;;;4958898;28;20182;-93
2021/01/28 03:08:10;;;;;;;20.53;11.43;;;8.80;99.90;;;;;;4971291;28;20213;-94
2021/01/28 03:10:36;;;;;;;20.13;11.50;;;8.80;99.90;;;;;;4960900;28;20175;-93
2021/01/28 03:13:05;;;;;;;20.30;11.87;;;8.80;99.90;;;;;;4979257;28;20194;-93
2021/01/28 03:15:58;;;;;;;18.27;11.50;;;8.80;99.90;;;;;;4990244;28;20190;-91
2021/01/28 03:18:25;;;;;;;21.33;11.70;;;8.90;99.90;;;;;;4992278;28;20224;-93
2021/01/28 03:20:54;;;;;;;22.50;11.13;;;9.10;99.90;;;;;;4975842;28;20196;-93
2021/01/28 03:23:46;;;;;;;17.60;10.37;;;9.10;99.90;;;;;;4977287;28;20217;-92
2021/01/28 03:26:35;;;;;;;16.13;10.40;;;9.20;99.90;;;;;;4990399;28;20182;-93
2021/01/28 03:29:01;;;;;;;16.53;10.63;;;9.20;99.90;;;;;;4992905;28;20204;-92
2021/01/28 03:31:26;;;;;;;17.60;10.53;;;9.20;99.90;;;;;;4977465;28;20264;-92
2021/01/28 03:33:52;;;;;;;19.07;10.63;;;9.30;99.90;;;;;;4992832;28;20286;-93
2021/01/28 03:36:19;;;;;;;17.90;10.03;;;9.40;99.90;;;;;;4991363;28;20229;-92
2021/01/28 03:38:46;;;;;;;15.67;10.27;;;9.40;99.90;;;;;;4976907;28;20201;-93
2021/01/28 03:41:13;;;;;;;19.37;10.37;;;9.40;99.90;;;;;;4989713;28;20190;-92
2021/01/28 03:43:39;;;;;;;18.30;9.80;;;9.50;99.90;;;;;;4981375;28;20189;-92
2021/01/28 03:46:05;;;;;;;17.17;9.67;;;9.30;99.90;;;;;;4960056;28;20178;-92
2021/01/28 03:48:41;;;;;;;15.50;10.07;;;9.20;99.90;;;;;;4990075;28;20178;-92
2021/01/28 03:51:26;;;;;;;16.63;9.73;;;9.30;99.90;;;;;;4992107;28;20241;-92
2021/01/28 03:54:10;;;;;;;14.43;9.83;;;9.40;99.90;;;;;;4996546;28;20196;-91
2021/01/28 03:56:44;;;;;;;16.90;10.40;;;9.40;99.90;;;;;;4991292;28;20183;-92
2021/01/28 03:59:09;;;;;;;15.40;9.53;;;9.40;99.90;;;;;;5006191;28;20229;-91
2021/01/28 04:01:56;;;;;;;15.00;9.23;;;9.50;99.90;;;;;;4977161;28;20193;-92
2021/01/28 04:04:41;;;;;;;14.07;8.87;;;9.40;99.90;;;;;;4998787;28;20312;-92
2021/01/28 04:07:46;;;;;;;15.20;8.97;;;9.40;99.90;;;;;;4954769;29;20179;-91
2021/01/28 04:10:17;;;;;;;14.83;9.53;;;9.20;99.90;;;;;;4937110;28;20196;-91
2021/01/28 04:12:45;;;;;;;16.00;9.63;;;9.20;99.90;;;;;;4959679;28;20194;-91
2021/01/28 04:15:29;;;;;;;15.63;9.27;;;9.20;99.90;;;;;;4961516;28;20216;-92
2021/01/28 04:17:55;;;;;;;13.90;8.87;;;9.10;99.90;;;;;;4966017;28;20187;-93
2021/01/28 04:20:28;;;;;;;14.50;9.47;;;9.10;99.90;;;;;;4993506;28;20170;-93
2021/01/28 04:22:58;;;;;;;14.40;9.23;;;9.10;99.90;;;;;;4960904;28;20222;-92
2021/01/28 04:25:28;;;;;;;16.57;9.43;;;9.20;99.90;;;;;;5018098;28;20170;-93
2021/01/28 04:27:55;;;;;;;16.07;8.47;;;9.30;99.90;;;;;;5013744;28;20967;-92
2021/01/28 04:30:44;;;;;;;14.57;8.13;;;9.40;99.90;;;;;;4982572;28;20193;-92
2021/01/28 04:33:10;;;;;;;13.63;8.63;;;9.50;99.90;;;;;;4995552;28;20276;-92
2021/01/28 04:35:57;;;;;;;12.47;7.37;;;9.40;99.90;;;;;;4996825;28;20201;-92
2021/01/28 04:38:23;;;;;;;14.00;8.17;;;9.10;99.90;;;;;;5004568;28;20218;-93
2021/01/28 04:41:11;;;;;;;16.10;7.57;;;9.10;99.90;;;;;;4979417;28;20174;-92
2021/01/28 04:43:39;;;;;;;12.83;7.17;;;9.20;99.90;;;;;;5013785;28;20179;-93
2021/01/28 04:46:26;;;;;;;12.07;7.13;;;9.10;99.90;;;;;;4997697;28;20202;-91
2021/01/28 04:49:07;;;;;;;12.17;6.93;;;9.00;99.90;;;;;;4995603;28;20205;-91
2021/01/28 04:52:01;;;;;;;11.83;7.17;;;8.90;99.90;;;;;;5000126;28;20561;-91
2021/01/28 04:54:35;;;;;;;14.83;6.70;;;8.90;99.90;;;;;;4971770;28;20178;-91
2021/01/28 04:57:09;;;;;;;14.23;6.53;;;8.90;99.90;;;;;;4977652;28;20212;-93
2021/01/28 04:59:43;;;;;;;10.67;6.00;;;8.90;99.90;;;;;;5009994;28;20253;-92
2021/01/28 05:02:15;;;;;;;14.97;6.40;;;9.00;99.90;;;;;;4983861;28;20171;-90
2021/01/28 05:04:59;;;;;;;12.43;6.77;;;9.10;99.90;;;;;;4992244;28;20237;-91
2021/01/28 05:07:48;;;;;;;11.37;6.13;;;9.20;99.90;;;;;;4988287;28;20190;-94
2021/01/28 05:10:37;;;;;;;11.93;6.10;;;9.20;99.90;;;;;;4999198;28;20224;-90
2021/01/28 05:13:36;;;;;;;11.00;5.00;;;9.10;99.90;;;;;;4980289;28;20325;-92
2021/01/28 05:16:40;;;;;;;13.90;5.20;;;8.90;99.90;;;;;;4993340;28;20245;-93
2021/01/28 05:19:39;;;;;;;10.57;4.77;;;9.00;99.90;;;;;;4949094;28;20214;-93
2021/01/28 05:22:44;;;;;;;10.50;5.07;;;8.90;99.90;;;;;;4977502;28;20277;-93
2021/01/28 05:25:26;;;;;;;9.23;4.90;;;8.90;99.90;;;;;;4967234;28;20185;-92
2021/01/28 05:28:27;;;;;;;11.70;5.07;;;9.00;99.90;;;;;;4991665;28;20194;-92
2021/01/28 05:31:26;;;;;;;9.30;4.10;;;8.90;99.90;;;;;;4989949;28;20192;-93
2021/01/28 05:34:13;;;;;;;9.40;4.27;;;8.90;99.90;;;;;;4979146;28;20248;-92
2021/01/28 05:36:59;;;;;;;11.13;4.93;;;8.80;99.90;;;;;;4976494;28;20191;-91
2021/01/28 05:39:38;;;;;;;12.37;4.60;;;8.80;99.90;;;;;;4995423;28;20204;-93
2021/01/28 05:42:23;;;;;;;11.03;4.70;;;8.80;99.90;;;;;;4996382;28;20282;-92
2021/01/28 05:44:49;;;;;;;7.97;3.97;;;8.80;99.90;;;;;;4985810;28;20232;-91
2021/01/28 05:47:19;;;;;;;9.43;3.97;;;8.80;99.90;;;;;;4992940;28;20861;-92
2021/01/28 05:50:33;;;;;;;9.00;4.23;;;8.80;99.90;;;;;;4969227;28;20194;-92
2021/01/28 05:53:15;;;;;;;10.63;4.53;;;8.80;99.90;;;;;;4991202;28;20278;-92
2021/01/28 05:55:47;;;;;;;12.07;5.20;;;8.90;99.90;;;;;;4978577;28;20178;-91
2021/01/28 05:58:20;;;;;;;8.73;4.07;;;8.90;99.90;;;;;;4979689;28;20192;-91
2021/01/28 06:00:57;;;;;;;10.40;4.10;;;8.90;99.90;;;;;;4978514;28;21702;-92
2021/01/28 06:03:51;;;;;;;10.90;4.53;;;9.10;99.90;;;;;;4994231;28;20648;-92
2021/01/28 06:07:13;;;;;;;8.80;4.30;;;9.00;99.90;;;;;;4992037;28;20200;-91
2021/01/28 06:10:20;;;;;;;12.03;4.10;;;9.00;99.90;;;;;;4974642;28;20206;-91
2021/01/28 06:13:22;;;;;;;11.50;3.80;;;9.10;99.90;;;;;;4994836;28;20361;-92
2021/01/28 06:16:08;;;;;;;9.03;3.63;;;9.10;99.90;;;;;;4981082;28;20604;-94
2021/01/28 06:18:54;;;;;;;10.10;4.70;;;9.20;99.90;;;;;;4992264;28;20699;-92
2021/01/28 06:21:50;;;;;;;8.93;4.00;;;9.20;99.90;;;;;;5005010;28;20257;-93
2021/01/28 06:25:01;;;;;;;8.70;3.73;;;9.20;99.90;;;;;;4993870;28;20739;-92
2021/01/28 06:27:37;;;;;;;8.73;3.87;;;9.30;99.90;;;;;;4975910;28;20222;-92
2021/01/28 06:30:33;;;;;;;6.83;3.33;;;9.40;99.90;;;;;;4974534;28;20763;-93
2021/01/28 06:33:26;;;;;;;5.70;3.30;;;9.50;99.90;;;;;;4979235;28;20186;-92
2021/01/28 06:36:39;;;;;;;7.00;3.10;;;9.50;99.90;;;;;;4993713;28;20205;-93
2021/01/28 06:39:36;;;;;;;7.23;3.10;;;9.60;99.90;;;;;;4980669;28;20205;-92
2021/01/28 06:42:35;;;;;;;6.00;2.80;;;9.60;99.90;;;;;;4976400;28;20277;-92
2021/01/28 06:45:20;;;;;;;5.50;2.83;;;9.60;99.90;;;;;;4975409;28;20178;-91
2021/01/28 06:48:19;;;;;;;6.47;3.00;;;9.70;99.90;;;;;;4962729;28;20629;-91
2021/01/28 06:51:02;;;;;;;7.03;2.70;;;9.90;99.90;;;;;;4983760;28;20177;-91
2021/01/28 06:54:04;;;;;;;13.07;2.80;;;9.90;99.90;;;;;;4993662;28;20182;-90
2021/01/28 06:56:56;;;;;;;5.60;2.40;;;9.90;99.90;;;;;;4973630;28;20221;-92
2021/01/28 07:00:10;;;;;;;6.07;2.53;;;10.00;99.90;;;;;;4980629;28;20272;-92
2021/01/28 07:03:05;;;;;;;7.83;3.13;;;10.00;99.90;;;;;;4961859;28;20250;-92
2021/01/28 07:06:04;;;;;;;7.90;2.90;;;10.10;99.90;;;;;;4990350;28;20183;-91
2021/01/28 07:08:57;;;;;;;6.53;2.87;;;10.10;99.90;;;;;;4975950;28;20182;-91
2021/01/28 07:11:42;;;;;;;8.70;2.87;;;10.20;99.90;;;;;;4960502;28;20191;-91
2021/01/28 07:14:50;;;;;;;5.93;2.73;;;10.20;99.90;;;;;;4996135;28;20296;-91
2021/01/28 07:17:41;;;;;;;5.83;3.10;;;10.20;99.90;;;;;;4982707;28;20553;-92
2021/01/28 07:20:27;;;;;;;6.37;3.23;;;10.10;99.90;;;;;;4989466;28;20244;-92
2021/01/28 07:23:24;;;;;;;9.63;3.40;;;10.00;99.90;;;;;;4975758;28;20273;-92
2021/01/28 07:25:53;;;;;;;7.10;3.57;;;10.00;99.90;;;;;;4963157;28;20206;-91
2021/01/28 07:28:19;;;;;;;9.67;3.80;;;10.10;99.90;;;;;;4981914;28;20184;-90
2021/01/28 07:30:48;;;;;;;7.30;3.60;;;10.10;99.90;;;;;;4973816;28;20212;-91
2021/01/28 07:33:40;;;;;;;7.97;3.70;;;10.20;99.90;;;;;;4972608;28;20185;-92
2021/01/28 07:36:28;;;;;;;9.30;3.43;;;10.20;99.90;;;;;;4970765;28;20191;-92
2021/01/28 07:39:29;;;;;;;7.40;3.47;;;10.20;99.90;;;;;;4986652;28;20297;-91
2021/01/28 07:42:33;;;;;;;8.30;3.93;;;10.30;99.90;;;;;;4988290;28;20201;-92
2021/01/28 07:45:31;;;;;;;8.83;4.20;;;10.40;99.90;;;;;;4993623;28;20192;-92
2021/01/28 07:48:25;;;;;;;6.23;3.27;;;10.40;99.90;;;;;;5002464;28;20189;-92
2021/01/28 07:51:32;;;;;;;8.07;3.87;;;10.50;99.90;;;;;;4982459;28;20170;-91
2021/01/28 07:53:59;;;;;;;9.13;4.00;;;10.60;99.90;;;;;;5003466;28;20186;-91
2021/01/28 07:56:40;;;;;;;7.70;3.83;;;10.60;99.90;;;;;;4975248;28;20189;-91
2021/01/28 07:59:12;;;;;;;8.10;3.77;;;10.70;99.90;;;;;;5005778;28;20246;-92
2021/01/28 08:01:40;;;;;;;7.57;3.73;;;10.70;99.90;;;;;;4985311;28;20219;-92
2021/01/28 08:04:26;;;;;;;10.00;3.97;;;10.80;99.90;;;;;;5002125;28;20214;-93
2021/01/28 08:06:54;;;;;;;6.97;3.60;;;10.80;99.90;;;;;;4995858;28;20187;-93
2021/01/28 08:09:19;;;;;;;11.60;4.93;;;10.80;99.90;;;;;;4965420;28;20189;-92
2021/01/28 08:11:51;;;;;;;8.17;4.20;;;10.80;99.90;;;;;;4963071;28;20208;-92
2021/01/28 08:14:21;;;;;;;8.27;4.67;;;10.80;99.90;;;;;;4996242;28;20200;-92
2021/01/28 08:16:50;;;;;;;7.57;4.50;;;10.90;99.90;;;;;;4974464;28;20553;-91
2021/01/28 08:19:25;;;;;;;10.33;4.60;;;11.00;99.90;;;;;;4962647;28;20210;-92
2021/01/28 08:22:17;;;;;;;9.07;4.60;;;11.00;99.90;;;;;;5000124;28;20188;-92
2021/01/28 08:24:56;;;;;;;8.97;4.57;;;11.00;99.90;;;;;;4972943;28;20208;-91
2021/01/28 08:27:31;;;;;;;9.73;4.90;;;11.10;99.90;;;;;;4986631;28;20188;-92
2021/01/28 08:30:13;;;;;;;9.83;4.10;;;11.10;99.90;;;;;;4974062;28;20199;-92
2021/01/28 08:32:40;;;;;;;9.23;5.03;;;11.10;99.90;;;;;;4981222;28;20184;-91
2021/01/28 08:35:13;;;;;;;8.90;4.50;;;11.10;99.90;;;;;;4994261;28;20271;-92
2021/01/28 08:37:39;;;;;;;9.57;4.33;;;11.10;99.90;;;;;;4961035;28;20635;-92
2021/01/28 08:40:12;;;;;;;9.83;4.93;;;11.20;99.90;;;;;;4947684;28;20218;-91
2021/01/28 08:42:38;;;;;;;8.57;4.20;;;11.30;99.90;;;;;;4959751;28;20192;-91
2021/01/28 08:45:11;;;;;;;10.63;4.33;;;11.20;99.90;;;;;;4952214;28;20187;-91
2021/01/28 08:47:37;;;;;;;8.77;4.77;;;11.30;99.90;;;;;;5001115;28;20187;-92
2021/01/28 08:50:20;;;;;;;8.63;4.60;;;11.30;99.90;;;;;;4977802;28;20199;-92
2021/01/28 08:52:47;;;;;;;7.67;4.30;;;11.40;99.90;;;;;;4976793;28;20190;-91
2021/01/28 08:55:27;;;;;;;7.50;4.37;;;11.50;99.90;;;;;;4999081;28;20220;-92
2021/01/28 08:58:01;;;;;;;7.37;4.07;;;11.50;99.90;;;;;;4984469;28;20241;-92
2021/01/28 09:00:27;;;;;;;7.00;3.90;;;11.60;99.90;;;;;;4980796;28;20222;-91
2021/01/28 09:02:55;;;;;;;7.27;3.70;;;11.60;99.90;;;;;;4975856;28;20191;-90
2021/01/28 09:05:25;;;;;;;6.57;3.67;;;11.60;99.90;;;;;;4995233;28;20223;-92
2021/01/28 09:07:59;;;;;;;6.03;3.37;;;11.60;99.90;;;;;;4984236;28;20203;-92
2021/01/28 09:10:34;;;;;;;5.97;3.27;;;11.60;99.90;;;;;;4964275;28;20274;-93
2021/01/28 09:13:23;;;;;;;4.83;2.70;;;11.70;99.90;;;;;;4959326;28;20280;-92
2021/01/28 09:16:18;;;;;;;5.20;2.90;;;11.70;99.90;;;;;;4994264;28;20180;-92
2021/01/28 09:18:45;;;;;;;5.93;3.27;;;11.70;99.90;;;;;;4949689;28;20210;-92
2021/01/28 09:21:15;;;;;;;7.80;3.60;;;11.80;99.90;;;;;;4960402;28;20179;-91
2021/01/28 09:24:03;;;;;;;7.73;3.80;;;11.90;99.90;;;;;;4967582;28;20228;-92
2021/01/28 09:26:36;;;;;;;6.13;2.83;;;12.00;99.90;;;;;;4963597;28;20179;-92
2021/01/28 09:29:08;;;;;;;4.97;2.60;;;11.80;99.90;;;;;;5009626;28;20184;-91
2021/01/28 09:31:34;;;;;;;6.53;3.23;;;11.70;99.90;;;;;;4981359;28;20330;-92
2021/01/28 09:34:12;;;;;;;6.63;3.00;;;11.80;99.90;;;;;;4962602;28;20270;-91
2021/01/28 09:36:39;;;;;;;6.83;2.90;;;11.90;99.90;;;;;;4964339;28;20192;-92
2021/01/28 09:39:27;;;;;;;7.30;3.50;;;12.00;99.90;;;;;;4969220;28;20200;-92
2021/01/28 09:41:53;;;;;;;5.43;2.43;;;12.10;99.90;;;;;;4968502;28;20196;-92
2021/01/28 09:44:33;;;;;;;7.33;3.00;;;12.20;99.90;;;;;;5001737;28;20187;-92
2021/01/28 09:47:18;;;;;;;5.20;2.60;;;12.30;99.90;;;;;;4960659;28;20556;-93
2021/01/28 09:49:50;;;;;;;4.73;2.23;;;12.30;99.90;;;;;;4963211;28;20697;-91
2021/01/28 09:52:27;;;;;;;4.90;2.67;;;12.30;99.90;;;;;;4975269;28;20184;-91
2021/01/28 09:54:56;;;;;;;5.40;3.30;;;12.30;99.90;;;;;;4962991;28;20441;-93
2021/01/28 09:57:22;;;;;;;8.63;3.77;;;12.20;99.90;;;;;;4992831;28;20675;-93
2021/01/28 09:59:48;;;;;;;8.07;4.63;;;12.20;99.90;;;;;;4960806;28;20228;-92
2021/01/28 10:02:36;;;;;;;10.63;5.50;;;12.00;99.90;;;;;;4962235;28;20643;-92
2021/01/28 10:05:04;;;;;;;9.40;5.60;;;12.00;99.90;;;;;;4965501;28;20661;-92
2021/01/28 10:07:30;;;;;;;11.00;5.83;;;12.00;99.90;;;;;;4959844;28;20647;-92
2021/01/28 10:09:55;;;;;;;11.80;6.50;;;12.00;99.90;;;;;;4995424;28;20203;-92
2021/01/28 10:12:24;;;;;;;10.97;5.50;;;11.90;99.90;;;;;;4979839;28;20185;-91
2021/01/28 10:14:50;;;;;;;11.27;6.00;;;11.90;99.90;;;;;;4979033;28;20277;-93
2021/01/28 10:17:16;;;;;;;11.00;5.80;;;11.80;99.90;;;;;;4962286;28;20184;-92
2021/01/28 10:19:45;;;;;;;11.67;5.70;;;11.90;99.90;;;;;;4981243;28;20218;-92
2021/01/28 10:22:16;;;;;;;10.83;5.80;;;11.90;99.90;;;;;;4977395;28;20198;-93
2021/01/28 10:24:42;;;;;;;13.83;5.70;;;11.70;99.90;;;;;;4958448;28;20223;-91
2021/01/28 10:27:08;;;;;;;11.23;5.60;;;11.80;99.90;;;;;;4993565;28;20179;-92
2021/01/28 10:29:37;;;;;;;11.70;5.33;;;11.70;99.90;;;;;;4999457;28;20196;-92
2021/01/28 10:32:07;;;;;;;14.43;6.33;;;11.80;99.90;;;;;;4975800;28;20195;-92
2021/01/28 10:34:33;;;;;;;13.13;5.83;;;11.80;99.90;;;;;;5009259;28;20750;-94
2021/01/28 10:36:59;;;;;;;13.73;6.07;;;11.90;99.90;;;;;;4991978;28;20229;-91
2021/01/28 10:39:24;;;;;;;12.67;5.40;;;11.90;99.90;;;;;;4990800;28;20666;-92
2021/01/28 10:41:50;;;;;;;9.13;4.67;;;11.90;99.90;;;;;;4960660;28;20282;-91
2021/01/28 10:44:16;;;;;;;9.77;3.97;;;11.90;99.90;;;;;;4973858;28;20189;-92
2021/01/28 10:46:43;;;;;;;10.77;4.00;;;11.90;99.90;;;;;;4992829;28;20175;-92
2021/01/28 10:49:09;;;;;;;7.00;3.60;;;11.80;99.90;;;;;;4958294;28;20204;-91
2021/01/28 10:51:36;;;;;;;8.63;3.87;;;11.80;99.90;;;;;;4973462;28;20202;-93
2021/01/28 10:54:02;;;;;;;8.83;3.60;;;11.90;99.90;;;;;;4954882;28;20242;-92
2021/01/28 10:56:28;;;;;;;12.23;4.50;;;11.90;99.90;;;;;;4960948;28;20652;-93
2021/01/28 10:58:53;;;;;;;12.97;5.20;;;12.00;99.90;;;;;;4979200;28;20306;-91
2021/01/28 11:01:20;;;;;;;14.60;6.07;;;11.90;99.90;;;;;;4991014;28;20278;-93
2021/01/28 11:03:46;;;;;;;13.40;5.70;;;11.90;99.90;;;;;;4976161;28;20190;-93
2021/01/28 11:06:11;;;;;;;14.70;6.13;;;11.90;99.90;;;;;;4996008;28;20264;-93
2021/01/28 11:08:37;;;;;;;13.13;6.13;;;12.00;99.90;;;;;;4960418;28;20287;-92
2021/01/28 11:11:04;;;;;;;14.03;5.57;;;12.00;99.90;;;;;;4960197;28;20182;-93
2021/01/28 11:13:29;;;;;;;16.97;5.53;;;12.20;99.90;;;;;;4991593;28;20227;-92
2021/01/28 11:15:55;;;;;;;12.73;5.03;;;12.20;99.90;;;;;;4972736;28;20220;-92
2021/01/28 11:18:21;;;;;;;12.30;4.80;;;12.20;99.90;;;;;;4978274;28;20188;-91
2021/01/28 11:20:46;;;;;;;11.80;4.83;;;12.20;99.90;;;;;;4960377;28;20191;-92
2021/01/28 11:23:12;;;;;;;11.00;4.83;;;12.20;99.90;;;;;;4991909;28;20232;-91
2021/01/28 11:25:38;;;;;;;13.23;4.37;;;12.00;99.90;;;;;;4975252;28;20210;-91
2021/01/28 11:28:04;;;;;;;12.83;4.70;;;12.10;99.90;;;;;;4971410;28;20655;-92
2021/01/28 11:30:31;;;;;;;11.73;4.67;;;12.10;99.90;;;;;;4996190;28;20187;-92
2021/01/28 11:32:57;;;;;;;10.17;4.60;;;12.10;99.90;;;;;;4979743;28;20663;-89
2021/01/28 11:35:26;;;;;;;12.57;5.60;;;12.10;99.90;;;;;;4979537;28;20191;-93
2021/01/28 11:37:52;;;;;;;14.57;6.30;;;12.00;99.90;;;;;;5010653;28;20185;-91
2021/01/28 11:40:21;;;;;;;13.97;7.07;;;12.00;99.90;;;;;;4964847;28;20284;-92
2021/01/28 11:42:47;;;;;;;17.23;7.93;;;12.20;99.90;;;;;;4962115;28;20263;-91
2021/01/28 11:45:14;;;;;;;14.07;8.37;;;12.30;99.90;;;;;;4982810;28;20466;-90
2021/01/28 11:47:40;;;;;;;15.10;8.67;;;12.30;99.90;;;;;;4980552;28;20246;-91
2021/01/28 11:50:08;;;;;;;16.30;8.50;;;12.40;99.90;;;;;;4967529;28;20179;-91
2021/01/28 11:52:33;;;;;;;18.20;7.57;;;12.30;99.90;;;;;;4997062;28;20190;-90
2021/01/28 11:54:59;;;;;;;14.67;7.47;;;12.30;99.90;;;;;;4963144;28;20309;-91
2021/01/28 11:57:25;;;;;;;14.13;7.00;;;12.30;99.90;;;;;;4994998;28;20300;-91
2021/01/28 11:59:50;;;;;;;10.93;5.60;;;12.30;99.90;;;;;;4963027;28;20560;-91
2021/01/28 12:02:16;;;;;;;15.57;6.40;;;12.40;99.90;;;;;;4962507;28;20722;-91
2021/01/28 12:04:42;;;;;;;12.17;5.70;;;12.50;99.90;;;;;;4980586;28;20172;-94
2021/01/28 12:07:08;;;;;;;12.77;4.87;;;12.50;99.90;;;;;;4995750;28;20209;-92
2021/01/28 12:09:34;;;;;;;9.57;4.70;;;12.40;99.90;;;;;;4977536;28;20201;-92
2021/01/28 12:11:59;;;;;;;9.63;4.93;;;12.30;99.90;;;;;;4981295;28;20192;-93
2021/01/28 12:14:25;;;;;;;12.27;4.50;;;12.30;99.90;;;;;;4960184;28;20185;-94
2021/01/28 12:16:51;;;;;;;9.70;4.90;;;12.20;99.90;;;;;;4980813;28;20658;-92
2021/01/28 12:19:16;;;;;;;9.47;4.50;;;12.20;99.90;;;;;;4962551;28;20208;-93
2021/01/28 12:21:43;;;;;;;8.17;4.00;;;12.20;99.90;;;;;;4982121;28;20200;-93
2021/01/28 12:24:09;;;;;;;10.80;4.07;;;12.20;99.90;;;;;;4994288;28;20221;-93
2021/01/28 12:26:35;;;;;;;10.00;4.60;;;12.30;99.90;;;;;;4994794;28;20509;-93
2021/01/28 12:29:00;;;;;;;12.23;5.00;;;12.20;99.90;;;;;;4976787;28;20175;-92
2021/01/28 12:31:26;;;;;;;9.40;4.30;;;12.30;99.90;;;;;;4979679;28;20184;-92
2021/01/28 12:33:52;;;;;;;8.33;4.57;;;12.30;99.90;;;;;;4964234;28;20200;-93
2021/01/28 12:36:17;;;;;;;10.63;3.63;;;12.50;99.90;;;;;;4962663;28;20241;-92
2021/01/28 12:38:43;;;;;;;8.50;3.80;;;12.60;99.90;;;;;;4961595;28;20208;-92
2021/01/28 12:41:09;;;;;;;10.60;3.27;;;12.70;99.90;;;;;;4985582;28;20678;-91
2021/01/28 12:43:34;;;;;;;11.23;3.73;;;12.70;99.90;;;;;;4978907;28;20231;-91
2021/01/28 12:46:00;;;;;;;7.77;3.40;;;12.80;99.90;;;;;;5003805;28;20544;-91
2021/01/28 12:48:26;;;;;;;10.40;3.40;;;12.90;99.90;;;;;;4985742;28;20195;-92
2021/01/28 12:50:52;;;;;;;9.60;3.60;;;12.90;99.90;;;;;;4982700;28;20203;-94
2021/01/28 12:53:18;;;;;;;10.53;3.53;;;12.90;99.90;;;;;;5012714;28;20240;-92
2021/01/28 12:55:43;;;;;;;11.83;3.63;;;12.80;99.90;;;;;;4992465;28;20538;-92
2021/01/28 12:58:14;;;;;;;10.93;3.60;;;12.70;99.90;;;;;;4980907;28;20257;-93
2021/01/28 13:00:40;;;;;;;10.87;3.67;;;12.70;99.90;;;;;;4963837;28;20220;-92
2021/01/28 13:03:05;;;;;;;11.73;3.30;;;12.80;99.90;;;;;;4995611;28;20200;-93
2021/01/28 13:05:31;;;;;;;12.50;3.60;;;12.70;99.90;;;;;;4966137;28;20596;-93
2021/01/28 13:07:57;;;;;;;9.33;3.70;;;12.70;99.90;;;;;;4962580;28;20184;-90
2021/01/28 13:10:24;;;;;;;12.67;3.60;;;12.70;99.90;;;;;;4979323;28;20261;-92
2021/01/28 13:12:50;;;;;;;11.93;3.40;;;12.60;99.90;;;;;;4962262;28;20181;-91
2021/01/28 13:15:18;;;;;;;11.73;3.47;;;12.50;99.90;;;;;;4960667;28;20189;-91
2021/01/28 13:17:45;;;;;;;12.53;3.20;;;12.50;99.90;;;;;;4979704;28;20197;-93
2021/01/28 13:20:11;;;;;;;12.43;3.17;;;12.60;99.90;;;;;;5004894;28;20196;-91
2021/01/28 13:22:38;;;;;;;13.03;3.03;;;12.60;99.90;;;;;;5009190;28;20245;-92